Riverton, Minnesota
Current Conditions -  °F | °C
As of 10:53 AM on Thursday 27 Nov 2014 (Local Time) from KBRD Reporting Station
Clear Clear  
Wind Chill: -1°   Ceiling: Unl
Heat Index: -1°   Visibility: 10mi
Dew Point: -7°   Wind: 0mph
Humidity: 75%   Direction: NA
Pressure: 30.46"   Gusts: NA
Location:  46.4711°N, 94.0264°W
Report Text: KBRD 271653Z AUTO 00000KT 10SM CLR M18/M22 A3046 RMK AO2 SLP353 T11831217
Loading
Personal Weather Stations






























Interactive Weather Map New forecast layout! Learn more

10-Day Weather Forecast

Advertisements
Track Severe Weather on mobile